Aspinwall, Iowa
Current Conditions -  °F | °C
As of 10:35 AM on Thursday 23 Oct 2014 (Local Time) from KDNS Reporting Station
Broken Clouds Broken Clouds  
Wind Chill: 61°   Ceiling: 1200
Heat Index: 61°   Visibility: 10mi
Dew Point: 57°   Wind: 5mph
Humidity: 88%   Direction: NA
Pressure: 30.04"   Gusts: NA
Location:  41.91°N, 95.14°W
Report Text: KDNS 231535Z AUTO VRB04KT 10SM BKN012 16/14 A3004 RMK AO2
Loading
Personal Weather Stations






























Interactive Weather Map
Tropical Storm Tracking
New forecast layout! Learn more

10-Day Weather Forecast

Advertisements
Track Severe Weather on mobile